Time;durP1;ratioP1;P1;durP2;ratioP2;P2;SDS_P1;SDS_P2;PMS_P1;PMS_P2;Temp;Humidity;BMP_temperature;BMP_pressure;BME280_temperature;BME280_humidity;BME280_pressure;Samples;Min_cycle;Max_cycle;Signal;HPM_P1;HPM_P2
2022/09/24 00:01:12;;;;;;;11.87;7.93;;;;;;;6.21;86.11;99007.67;2054375;87;21405;-81
2022/09/24 00:04:12;;;;;;;13.33;7.77;;;;;;;6.22;86.22;99000.36;2054452;87;20921;-81
2022/09/24 00:07:13;;;;;;;12.43;8.67;;;;;;;6.28;86.42;99004.44;2054668;87;20897;-81
2022/09/24 00:10:13;;;;;;;15.53;9.10;;;;;;;6.37;86.49;99000.84;2054479;87;21283;-81
2022/09/24 00:13:14;;;;;;;28.47;11.00;;;;;;;6.43;86.63;98998.84;2054532;87;20958;-82
2022/09/24 00:16:14;;;;;;;29.90;9.07;;;;;;;6.48;86.48;98997.69;2054518;87;20965;-82
2022/09/24 00:19:14;;;;;;;16.73;9.17;;;;;;;6.47;86.45;98994.63;2054696;87;20920;-82
2022/09/24 00:22:15;;;;;;;17.37;8.80;;;;;;;6.45;86.30;98991.11;2054609;87;21328;-83
2022/09/24 00:28:34;;;;;;;14.97;8.10;;;;;;;6.48;86.56;98989.50;2061390;86;21268;-81
2022/09/24 00:31:34;;;;;;;17.20;8.43;;;;;;;6.52;86.59;98979.67;2059689;87;21090;-83
2022/09/24 00:34:35;;;;;;;12.80;8.37;;;;;;;6.58;86.70;98984.16;2059874;86;20925;-82
2022/09/24 00:37:35;;;;;;;11.63;8.53;;;;;;;6.64;86.69;98983.93;2059673;87;21340;-81
2022/09/24 00:40:36;;;;;;;13.70;8.33;;;;;;;6.65;86.52;98981.80;2059552;87;20909;-81
2022/09/24 00:43:37;;;;;;;12.90;7.87;;;;;;;6.69;86.56;98976.28;2059877;86;20948;-81
2022/09/24 00:46:37;;;;;;;21.87;9.17;;;;;;;6.68;86.50;98974.52;2060019;87;21300;-82
2022/09/24 00:49:38;;;;;;;16.60;8.20;;;;;;;6.73;86.68;98975.53;2060105;86;20876;-81
2022/09/24 00:52:38;;;;;;;22.23;8.33;;;;;;;6.74;86.67;98973.41;2060030;87;21012;-83
2022/09/24 00:55:38;;;;;;;13.20;9.07;;;;;;;6.77;86.72;98971.31;2060421;86;20925;-82
2022/09/24 00:58:39;;;;;;;14.13;8.50;;;;;;;6.84;86.77;98965.05;2059967;87;21367;-82
2022/09/24 01:01:39;;;;;;;14.47;8.20;;;;;;;6.84;86.77;98965.05;2060028;87;20916;-82
2022/09/24 01:04:39;;;;;;;10.43;8.30;;;;;;;6.87;86.80;98960.36;2060017;87;20972;-81
2022/09/24 01:07:40;;;;;;;15.10;9.10;;;;;;;6.89;86.86;98956.97;2060165;86;21310;-83
2022/09/24 01:10:50;;;;;;;13.17;8.57;;;;;;;6.92;86.90;98960.95;2060062;87;20961;-83
2022/09/24 01:13:51;;;;;;;16.80;8.27;;;;;;;6.92;86.81;98954.47;2059716;86;20928;-81
2022/09/24 01:16:52;;;;;;;13.67;8.23;;;;;;;6.90;86.91;98949.65;2060311;87;20960;-81
2022/09/24 01:19:50;;;;;;;11.33;8.20;;;;;;;6.94;87.11;98948.05;2060271;87;21039;-82
2022/09/24 01:22:51;;;;;;;16.57;9.60;;;;;;;6.96;87.16;98944.66;2060166;87;20960;-81
2022/09/24 01:25:53;;;;;;;14.97;9.10;;;;;;;7.00;87.21;98949.10;2059523;85;20964;-83
2022/09/24 01:28:52;;;;;;;12.30;8.83;;;;;;;7.07;87.26;98949.27;2060189;87;20920;-83
2022/09/24 01:31:52;;;;;;;19.07;9.00;;;;;;;7.07;87.26;98941.48;2060140;87;20929;-83
2022/09/24 01:34:52;;;;;;;14.43;9.20;;;;;;;7.04;87.14;98935.79;2059965;87;21336;-82
2022/09/24 01:37:53;;;;;;;14.57;9.13;;;;;;;7.02;87.34;98937.46;2059997;87;20912;-82
2022/09/24 01:40:53;;;;;;;14.93;9.00;;;;;;;7.05;87.61;98929.76;2060217;87;20947;-81
2022/09/24 01:43:53;;;;;;;13.60;9.03;;;;;;;7.09;87.56;98931.60;2060354;86;21301;-83
2022/09/24 01:46:54;;;;;;;15.97;9.17;;;;;;;7.11;87.67;98931.22;2059836;87;20944;-82
2022/09/24 01:49:56;;;;;;;16.30;9.90;;;;;;;7.15;87.55;98929.16;2037857;87;20936;-81
2022/09/24 01:52:57;;;;;;;15.47;9.73;;;;;;;7.14;87.60;98933.02;2059045;87;20960;-81
2022/09/24 01:55:57;;;;;;;14.77;9.77;;;;;;;7.18;87.74;98925.36;2059209;86;20973;-82
2022/09/24 01:58:57;;;;;;;15.10;9.47;;;;;;;7.15;87.57;98923.98;2059396;87;20972;-82
2022/09/24 02:01:58;;;;;;;12.27;9.67;;;;;;;7.13;87.75;98920.88;2059618;87;20932;-84
2022/09/24 02:04:58;;;;;;;15.70;9.50;;;;;;;7.13;87.88;98916.56;2059910;87;20969;-82
2022/09/24 02:07:58;;;;;;;18.87;11.00;;;;;;;7.17;88.03;98914.93;2059935;87;20940;-82
2022/09/24 02:10:59;;;;;;;22.67;12.33;;;;;;;7.23;88.22;98918.98;2060063;86;20940;-82
2022/09/24 02:13:59;;;;;;;20.07;10.53;;;;;;;7.27;88.31;98918.22;2059984;86;21000;-81
2022/09/24 02:17:00;;;;;;;15.90;9.13;;;;;;;7.29;88.43;98912.66;2059657;86;20941;-81
2022/09/24 02:20:00;;;;;;;16.53;10.17;;;;;;;7.28;88.19;98912.19;2059767;87;21008;-82
2022/09/24 02:23:01;;;;;;;18.13;9.73;;;;;;;7.22;88.07;98905.55;2060050;86;20939;-83
2022/09/24 02:26:01;;;;;;;21.53;9.40;;;;;;;7.17;88.29;98905.42;2055004;86;21449;-82
2022/09/24 02:29:01;;;;;;;13.47;9.30;;;;;;;7.19;88.53;98905.47;2055051;86;20972;-83
2022/09/24 02:32:02;;;;;;;20.43;12.27;;;;;;;7.23;88.65;98903.41;2055045;86;20920;-82
2022/09/24 02:35:02;;;;;;;21.10;12.17;;;;;;;7.24;89.32;98909.94;2055142;86;20920;-82
2022/09/24 02:38:03;;;;;;;15.43;10.43;;;;;;;7.28;89.18;98900.09;2055115;86;20928;-82
2022/09/24 02:41:04;;;;;;;15.47;10.30;;;;;;;7.28;88.82;98902.69;2055253;86;21303;-82
2022/09/24 02:44:03;;;;;;;18.07;12.00;;;;;;;7.26;88.82;98900.89;2055041;86;20937;-81
2022/09/24 02:47:04;;;;;;;17.20;11.07;;;;;;;7.29;88.89;98903.56;2054868;86;20991;-82
2022/09/24 02:50:04;;;;;;;17.87;10.70;;;;;;;7.31;88.73;98906.66;2055724;86;20893;-82
2022/09/24 02:53:05;;;;;;;17.23;10.03;;;;;;;7.36;88.87;98906.77;2054898;86;20924;-82
2022/09/24 02:56:05;;;;;;;17.10;9.73;;;;;;;7.34;88.50;98899.37;2054936;86;20935;-82
2022/09/24 02:59:06;;;;;;;16.00;10.20;;;;;;;7.29;88.43;98899.67;2055040;86;20951;-82
2022/09/24 03:02:06;;;;;;;18.87;10.77;;;;;;;7.33;88.88;98909.30;2055119;86;21326;-83
2022/09/24 03:05:06;;;;;;;17.23;10.97;;;;;;;7.33;88.88;98909.30;2055434;86;20973;-82
2022/09/24 03:08:07;;;;;;;21.83;10.07;;;;;;;7.35;89.32;98899.83;2054861;86;20956;-80
2022/09/24 03:11:07;;;;;;;17.83;9.83;;;;;;;7.40;89.09;98903.41;2054941;86;21114;-80
2022/09/24 03:14:07;;;;;;;18.10;10.37;;;;;;;7.34;88.90;98901.97;2055098;86;20904;-82
2022/09/24 03:17:08;;;;;;;16.80;10.07;;;;;;;7.35;89.18;98903.72;2054944;86;21320;-82
2022/09/24 03:20:08;;;;;;;14.93;10.07;;;;;;;7.37;89.33;98899.45;2055620;86;20971;-81
2022/09/24 03:23:09;;;;;;;28.07;11.00;;;;;;;7.35;88.95;98894.63;2054791;86;20952;-82
2022/09/24 03:26:09;;;;;;;17.00;10.20;;;;;;;7.28;88.95;98894.02;2054794;85;21052;-82
2022/09/24 03:29:10;;;;;;;18.23;11.97;;;;;;;7.30;89.36;98893.22;2054676;87;21296;-81
2022/09/24 03:32:10;;;;;;;17.03;11.60;;;;;;;7.33;89.53;98888.52;2054689;87;20897;-82
2022/09/24 03:35:10;;;;;;;14.67;10.13;;;;;;;7.39;89.81;98892.57;2054801;85;20952;-81
2022/09/24 03:38:11;;;;;;;15.37;10.33;;;;;;;7.42;89.45;98891.34;2054667;86;21265;-82
2022/09/24 03:41:11;;;;;;;13.40;10.20;;;;;;;7.44;89.65;98890.97;2054275;87;20983;-82
2022/09/24 03:44:11;;;;;;;14.03;10.63;;;;;;;7.46;89.52;98886.69;2054098;87;20952;-81
2022/09/24 03:47:12;;;;;;;16.37;11.20;;;;;;;7.46;89.37;98880.20;2054202;87;21347;-80
2022/09/24 03:50:12;;;;;;;17.80;11.83;;;;;;;7.46;89.40;98881.49;2054195;87;21328;-82
2022/09/24 03:53:13;;;;;;;30.97;13.20;;;;;;;7.48;89.56;98881.53;2053910;87;21356;-81
2022/09/24 03:56:13;;;;;;;19.63;12.17;;;;;;;7.51;89.51;98884.20;2054204;87;21001;-82
2022/09/24 03:59:14;;;;;;;17.03;12.37;;;;;;;7.52;89.46;98884.24;2054332;87;20967;-81
2022/09/24 04:02:14;;;;;;;59.43;14.17;;;;;;;7.54;89.45;98887.75;2053892;87;20969;-82
2022/09/24 04:05:14;;;;;;;18.73;10.83;;;;;;;7.56;89.41;98887.38;2054155;87;20972;-82
2022/09/24 04:08:15;;;;;;;17.90;11.33;;;;;;;7.55;89.23;98888.21;2054124;87;20952;-81
2022/09/24 04:11:15;;;;;;;17.43;12.73;;;;;;;7.51;89.10;98885.50;2054149;87;21032;-81
2022/09/24 04:14:16;;;;;;;17.47;12.40;;;;;;;7.48;89.29;98890.20;2054080;87;20917;-82
2022/09/24 04:17:16;;;;;;;17.63;12.53;;;;;;;7.51;89.43;98894.59;2053596;87;20924;-81
2022/09/24 04:20:20;;;;;;;14.53;11.80;;;;;;;7.51;89.22;98888.98;2053600;87;21007;-82
2022/09/24 04:23:17;;;;;;;21.70;12.20;;;;;;;7.50;89.22;98895.02;2053941;87;20988;-83
2022/09/24 04:26:17;;;;;;;14.27;11.50;;;;;;;7.51;89.18;98888.98;2055099;86;20988;-82
2022/09/24 04:29:18;;;;;;;13.83;11.40;;;;;;;7.45;88.69;98896.62;2055620;86;20932;-81
2022/09/24 04:32:18;;;;;;;15.77;10.67;;;;;;;7.39;88.84;98896.47;2053871;86;20940;-81
2022/09/24 04:35:18;;;;;;;14.33;11.50;;;;;;;7.37;88.92;98902.46;2053821;86;20979;-81
2022/09/24 04:38:20;;;;;;;15.13;10.93;;;;;;;7.40;89.27;98896.92;2080933;85;20960;-82
2022/09/24 04:41:19;;;;;;;20.20;12.17;;;;;;;7.47;89.27;98894.94;2097730;85;20959;-81
2022/09/24 04:44:20;;;;;;;18.03;11.17;;;;;;;7.47;88.89;98892.77;2097557;85;20949;-80
2022/09/24 04:47:23;;;;;;;16.13;11.77;;;;;;;7.46;88.86;98891.88;2097476;85;20948;-84
2022/09/24 04:50:20;;;;;;;14.70;12.10;;;;;;;7.49;89.05;98894.55;2097233;85;20984;-81
2022/09/24 04:53:22;;;;;;;18.20;11.43;;;;;;;7.61;89.33;98889.66;2097168;85;21119;-83
2022/09/24 04:56:21;;;;;;;15.17;11.43;;;;;;;7.67;88.94;98890.23;2097280;85;21015;-82
2022/09/24 04:59:22;;;;;;;14.63;11.43;;;;;;;7.65;88.69;98886.30;2098009;85;20968;-83
2022/09/24 05:02:22;;;;;;;17.30;11.80;;;;;;;7.66;88.53;98881.98;2098297;85;20940;-84
2022/09/24 05:05:22;;;;;;;14.73;10.40;;;;;;;7.67;88.63;98876.81;2098387;85;20952;-83
2022/09/24 05:08:23;;;;;;;14.67;11.47;;;;;;;7.69;88.53;98879.45;2098079;85;20952;-80
2022/09/24 05:11:23;;;;;;;73.00;13.77;;;;;;;7.72;88.68;98880.82;2097798;85;21321;-84
2022/09/24 05:14:24;;;;;;;28.93;11.77;;;;;;;7.78;88.83;98878.36;2097111;85;21012;-83
2022/09/24 05:17:24;;;;;;;15.33;11.40;;;;;;;7.87;88.84;98876.02;2097751;85;20920;-83
2022/09/24 05:20:25;;;;;;;12.80;10.50;;;;;;;7.90;88.60;98873.48;2097180;85;21671;-81
2022/09/24 05:23:25;;;;;;;21.37;12.07;;;;;;;7.93;88.52;98870.08;2096967;85;20972;-82
2022/09/24 05:29:44;;;;;;;17.47;11.83;;;;;;;8.05;88.50;98872.95;2098089;85;21308;-83
2022/09/24 05:32:48;;;;;;;17.00;11.07;;;;;;;8.14;88.46;98865.35;2097817;85;20940;-83
2022/09/24 05:35:45;;;;;;;16.10;10.83;;;;;;;8.20;88.21;98860.28;2098845;85;20941;-83
2022/09/24 05:38:45;;;;;;;16.40;10.37;;;;;;;8.24;88.24;98863.83;2098840;85;20956;-82
2022/09/24 05:41:46;;;;;;;17.53;11.53;;;;;;;8.27;88.19;98867.79;2098052;85;20941;-82
2022/09/24 05:44:47;;;;;;;16.37;11.93;;;;;;;8.34;88.08;98871.43;2097524;85;20905;-82
2022/09/24 05:47:47;;;;;;;13.73;11.00;;;;;;;8.39;87.88;98869.80;2097058;85;20937;-83
2022/09/24 05:50:47;;;;;;;41.87;12.60;;;;;;;8.46;87.73;98867.36;2097772;85;21442;-83
2022/09/24 05:53:49;;;;;;;17.93;11.47;;;;;;;8.53;87.46;98869.66;2097357;85;20948;-84
2022/09/24 05:56:48;;;;;;;16.20;11.93;;;;;;;8.64;87.58;98874.66;2097352;85;20992;-83
2022/09/24 05:59:48;;;;;;;30.00;13.00;;;;;;;8.79;87.27;98877.59;2098036;85;20929;-83
2022/09/24 06:02:49;;;;;;;21.10;12.83;;;;;;;8.94;86.94;98882.21;2097967;85;21584;-83
2022/09/24 06:05:49;;;;;;;13.77;11.90;;;;;;;9.14;86.94;98882.16;2097601;85;20940;-83
2022/09/24 06:08:49;;;;;;;19.83;11.70;;;;;;;9.33;86.43;98883.78;2097435;85;20937;-83
2022/09/24 06:11:52;;;;;;;22.33;12.53;;;;;;;9.49;86.10;98880.16;2096931;85;21392;-80
2022/09/24 06:14:52;;;;;;;32.80;13.60;;;;;;;9.70;85.91;98882.27;2097530;85;20992;-83
2022/09/24 06:17:51;;;;;;;17.20;12.00;;;;;;;9.90;85.12;98881.27;2097457;85;20945;-83
2022/09/24 06:20:51;;;;;;;17.73;12.47;;;;;;;10.08;84.70;98876.32;2097372;85;20956;-82
2022/09/24 06:23:51;;;;;;;33.93;13.67;;;;;;;10.24;84.38;98881.36;2097175;85;20956;-82
2022/09/24 06:26:53;;;;;;;37.33;14.67;;;;;;;10.37;83.85;98873.27;2070975;85;21107;-83
2022/09/24 06:29:53;;;;;;;28.07;14.13;;;;;;;10.50;83.75;98877.39;2066820;86;20924;-83
2022/09/24 06:32:54;;;;;;;19.27;12.57;;;;;;;10.67;83.23;98880.63;2066829;85;20935;-83
2022/09/24 06:35:54;;;;;;;18.95;13.13;;;;;;;10.80;82.36;98883.41;2066561;85;20947;-82
2022/09/24 06:38:54;;;;;;;17.47;12.80;;;;;;;10.97;81.87;98880.98;2066506;86;21316;-82
2022/09/24 06:41:55;;;;;;;18.57;11.75;;;;;;;11.15;81.53;98880.29;2066396;85;20980;-82
2022/09/24 06:44:55;;;;;;;16.45;12.37;;;;;;;11.31;81.07;98879.61;2066359;86;20980;-82
2022/09/24 06:47:55;;;;;;;20.62;13.03;;;;;;;11.45;81.01;98881.05;2066527;85;20916;-82
2022/09/24 06:50:56;;;;;;;14.68;12.13;;;;;;;11.49;80.49;98882.39;2067497;85;20939;-80
2022/09/24 06:53:56;;;;;;;15.95;12.50;;;;;;;11.62;79.95;98887.29;2067101;85;20972;-81
2022/09/24 06:56:57;;;;;;;15.43;11.85;;;;;;;11.77;80.38;98880.00;2066550;85;21043;-81
2022/09/24 06:59:57;;;;;;;32.13;13.65;;;;;;;11.88;80.22;98882.30;2066951;86;21412;-83
2022/09/24 07:02:57;;;;;;;25.65;13.75;;;;;;;12.04;79.44;98881.53;2066588;85;20924;-83
2022/09/24 07:05:58;;;;;;;18.35;12.80;;;;;;;12.18;78.35;98879.47;2066446;86;20948;-81
2022/09/24 07:08:59;;;;;;;16.12;12.85;;;;;;;12.34;77.99;98886.54;2066013;85;20955;-82
2022/09/24 07:12:03;;;;;;;19.98;13.28;;;;;;;12.43;77.24;98888.77;2066507;85;20940;-82
2022/09/24 07:14:59;;;;;;;17.25;12.35;;;;;;;12.53;76.87;98892.75;2065983;85;21339;-81
2022/09/24 07:17:59;;;;;;;18.57;13.03;;;;;;;12.67;76.15;98894.55;2065764;85;20940;-81
2022/09/24 07:21:00;;;;;;;24.25;12.47;;;;;;;12.79;76.04;98896.34;2066554;86;21007;-82
2022/09/24 07:24:00;;;;;;;19.62;13.32;;;;;;;12.90;75.82;98894.64;2066775;85;21550;-82
2022/09/24 07:27:01;;;;;;;16.42;12.10;;;;;;;13.04;75.23;98896.03;2091465;85;21008;-81
2022/09/24 07:30:01;;;;;;;44.83;15.85;;;;;;;13.20;75.19;98898.28;2095749;85;20988;-83
2022/09/24 07:33:01;;;;;;;25.57;12.40;;;;;;;13.34;73.82;98902.68;2098068;85;20953;-81
2022/09/24 07:36:02;;;;;;;20.40;11.85;;;;;;;13.46;73.78;98903.13;2098024;85;20988;-82
2022/09/24 07:39:02;;;;;;;21.90;12.33;;;;;;;13.61;73.47;98905.77;2098065;85;21401;-82
2022/09/24 07:42:03;;;;;;;19.17;12.37;;;;;;;13.77;72.23;98895.28;2097320;85;20984;-81
2022/09/24 07:45:03;;;;;;;14.25;12.58;;;;;;;13.85;71.74;98902.27;2097715;85;20957;-81
2022/09/24 07:48:04;;;;;;;18.98;12.85;;;;;;;14.00;71.18;98908.86;2098265;85;21261;-81
2022/09/24 07:51:05;;;;;;;17.32;12.28;;;;;;;14.11;68.88;98906.22;2097069;85;20954;-81
2022/09/24 07:54:04;;;;;;;18.00;13.15;;;;;;;14.19;68.96;98907.08;2097229;85;20905;-81
2022/09/24 07:57:05;;;;;;;17.32;11.80;;;;;;;14.32;69.25;98905.30;2097677;85;21000;-81
2022/09/24 08:00:05;;;;;;;13.50;11.68;;;;;;;14.56;68.62;98903.08;2097565;85;21403;-81
2022/09/24 08:03:06;;;;;;;18.90;12.13;;;;;;;14.78;66.80;98904.78;2097804;85;21344;-81
2022/09/24 08:06:06;;;;;;;15.55;12.07;;;;;;;14.95;67.36;98907.34;2097803;85;20933;-79
2022/09/24 08:09:07;;;;;;;24.27;12.75;;;;;;;15.17;66.86;98906.78;2098093;85;20936;-82
2022/09/24 08:12:07;;;;;;;16.35;11.53;;;;;;;15.25;66.43;98901.92;2097731;85;20989;-82
2022/09/24 08:15:07;;;;;;;17.02;11.57;;;;;;;15.26;65.57;98909.36;2098308;85;20933;-82
2022/09/24 08:18:08;;;;;;;16.20;11.43;;;;;;;15.33;66.03;98900.55;2097439;85;20943;-82
2022/09/24 08:21:10;;;;;;;13.18;10.80;;;;;;;15.50;65.09;98907.02;2097679;85;20976;-81
2022/09/24 08:24:08;;;;;;;12.05;9.78;;;;;;;15.55;63.79;98899.52;2097182;85;20980;-83
2022/09/24 08:27:09;;;;;;;13.60;10.88;;;;;;;15.63;64.12;98902.61;2070424;85;20983;-84
2022/09/24 08:30:09;;;;;;;12.40;10.08;;;;;;;15.73;64.04;98895.94;2066496;85;20937;-82
2022/09/24 08:33:10;;;;;;;12.98;10.40;;;;;;;15.89;62.02;98896.24;2065576;86;21323;-82
2022/09/24 08:36:10;;;;;;;14.33;10.60;;;;;;;15.89;62.02;98896.24;2065593;85;20964;-82
2022/09/24 08:39:12;;;;;;;14.65;10.65;;;;;;;16.08;61.83;98902.22;2065942;86;21399;-83
2022/09/24 08:42:11;;;;;;;11.28;9.68;;;;;;;16.30;61.39;98897.61;2065677;85;20916;-82
2022/09/24 08:48:20;;;;;;;10.28;8.70;;;;;;;16.65;59.39;98905.61;2065758;86;20991;-82
2022/09/24 08:51:21;;;;;;;9.73;8.73;;;;;;;16.74;58.26;98902.45;2066279;86;21205;-82
2022/09/24 08:54:23;;;;;;;12.18;9.58;;;;;;;16.76;57.28;98898.48;2066373;86;20935;-82
2022/09/24 08:57:22;;;;;;;12.50;8.70;;;;;;;16.79;56.84;98901.95;2066258;86;20991;-82
2022/09/24 09:00:22;;;;;;;11.85;9.50;;;;;;;17.04;56.74;98902.51;2066442;86;21419;-82
2022/09/24 09:03:22;;;;;;;11.63;9.75;;;;;;;17.22;55.68;98899.20;2066168;86;21363;-82
2022/09/24 09:06:23;;;;;;;13.35;9.53;;;;;;;17.32;55.30;98896.41;2066054;86;20944;-81
2022/09/24 09:09:23;;;;;;;13.03;9.73;;;;;;;17.38;54.78;98895.48;2066223;85;20892;-81
2022/09/24 09:12:24;;;;;;;11.18;7.95;;;;;;;17.31;54.44;98896.42;2065781;86;20971;-81
2022/09/24 09:15:24;;;;;;;11.40;8.70;;;;;;;17.25;53.08;98889.92;2065952;86;20920;-81
2022/09/24 09:18:24;;;;;;;9.78;8.78;;;;;;;17.35;53.34;98892.88;2065621;86;20943;-81
2022/09/24 09:21:25;;;;;;;10.85;9.45;;;;;;;17.43;53.31;98893.64;2066346;86;20931;-82
2022/09/24 09:24:25;;;;;;;12.80;10.53;;;;;;;17.50;52.94;98888.70;2066484;86;21325;-82
2022/09/24 09:27:28;;;;;;;10.75;8.20;;;;;;;17.44;51.77;98884.83;2093397;85;21439;-81
2022/09/24 09:30:26;;;;;;;9.85;8.60;;;;;;;17.45;52.74;98883.48;2098538;85;20944;-82
2022/09/24 09:33:27;;;;;;;11.28;9.95;;;;;;;17.53;51.85;98887.33;2098676;85;20937;-82
2022/09/24 09:36:27;;;;;;;8.88;7.97;;;;;;;17.54;52.98;98886.44;2098414;85;20964;-82
2022/09/24 09:39:27;;;;;;;8.83;7.92;;;;;;;17.56;51.81;98878.49;2098621;85;20976;-83
2022/09/24 09:42:28;;;;;;;13.58;9.20;;;;;;;17.54;50.36;98889.07;2099088;85;20901;-82
2022/09/24 09:45:28;;;;;;;13.78;9.73;;;;;;;17.44;51.50;98879.11;2098538;85;21004;-82
2022/09/24 09:48:29;;;;;;;10.43;8.08;;;;;;;17.41;51.36;98881.79;2098011;85;20992;-82
2022/09/24 09:51:29;;;;;;;10.25;8.43;;;;;;;17.43;51.88;98878.69;2097664;85;21357;-83
2022/09/24 09:54:29;;;;;;;16.25;6.40;;;;;;;17.45;51.58;98877.34;2097727;85;20967;-81
2022/09/24 09:57:30;;;;;;;7.40;6.28;;;;;;;17.53;49.73;98875.91;2097369;85;20991;-81
2022/09/24 10:00:31;;;;;;;10.20;6.22;;;;;;;17.43;49.31;98870.77;2098136;85;21422;-82
2022/09/24 10:03:31;;;;;;;7.12;5.47;;;;;;;17.39;49.41;98869.52;2097749;85;20933;-82
2022/09/24 10:06:31;;;;;;;8.93;6.37;;;;;;;17.23;48.72;98862.25;2097270;85;20943;-82
2022/09/24 10:09:31;;;;;;;5.70;5.10;;;;;;;17.16;49.16;98858.83;2097099;85;20944;-83
2022/09/24 10:12:32;;;;;;;8.30;6.10;;;;;;;17.12;49.07;98858.89;2097278;85;20920;-83
2022/09/24 10:15:32;;;;;;;6.08;5.47;;;;;;;17.30;49.62;98852.02;2096348;85;20950;-82
2022/09/24 10:18:33;;;;;;;29.85;7.17;;;;;;;17.38;48.38;98842.70;2097344;85;21396;-81
2022/09/24 10:21:33;;;;;;;7.47;5.42;;;;;;;17.60;49.31;98845.88;2097319;85;20976;-83
2022/09/24 10:24:34;;;;;;;6.20;5.60;;;;;;;17.74;48.38;98838.18;2095490;85;20978;-82
2022/09/24 10:27:34;;;;;;;7.10;5.87;;;;;;;17.81;48.98;98843.78;2070782;85;21054;-81
2022/09/24 10:30:34;;;;;;;6.90;6.08;;;;;;;17.79;48.37;98836.34;2065097;86;20948;-82
2022/09/24 10:33:35;;;;;;;6.45;5.40;;;;;;;17.95;48.18;98827.69;2065184;86;21008;-83
2022/09/24 10:36:35;;;;;;;7.45;5.12;;;;;;;17.99;45.50;98825.86;2065735;86;20904;-82
2022/09/24 10:39:36;;;;;;;6.95;6.25;;;;;;;18.10;47.19;98825.22;2066007;86;21200;-83
2022/09/24 10:42:37;;;;;;;7.95;5.53;;;;;;;18.44;47.37;98830.75;2066552;86;21268;-82
2022/09/24 10:45:36;;;;;;;4.65;4.25;;;;;;;18.79;46.66;98822.13;2065986;86;20947;-81
2022/09/24 10:48:37;;;;;;;4.67;3.52;;;;;;;19.01;45.41;98819.87;2065529;86;20927;-82
2022/09/24 10:51:37;;;;;;;4.15;3.75;;;;;;;19.23;43.58;98813.67;2065665;86;20972;-81
2022/09/24 10:54:38;;;;;;;4.53;3.50;;;;;;;19.13;43.58;98822.28;2066672;85;20965;-81
2022/09/24 10:57:38;;;;;;;4.45;3.52;;;;;;;18.96;43.67;98828.36;2066064;85;21418;-82
2022/09/24 11:00:38;;;;;;;3.95;3.55;;;;;;;18.83;42.68;98822.92;2066066;86;20999;-81
2022/09/24 11:03:40;;;;;;;3.67;3.33;;;;;;;18.66;42.40;98820.64;2067358;85;20980;-83
2022/09/24 11:06:39;;;;;;;10.30;3.90;;;;;;;18.71;43.40;98812.16;2066876;86;20948;-83
2022/09/24 11:09:40;;;;;;;3.62;2.85;;;;;;;18.70;41.78;98810.42;2066989;86;20964;-83
2022/09/24 11:12:40;;;;;;;3.47;3.17;;;;;;;18.70;42.66;98810.42;2066888;86;20908;-82
2022/09/24 11:15:40;;;;;;;3.02;2.77;;;;;;;18.70;41.97;98815.26;2066278;86;20951;-83
2022/09/24 11:18:44;;;;;;;4.75;2.87;;;;;;;18.80;42.44;98822.55;2066783;85;20955;-82
2022/09/24 11:21:41;;;;;;;3.17;2.72;;;;;;;18.93;41.65;98822.69;2065988;86;20945;-82
2022/09/24 11:24:42;;;;;;;10.75;3.60;;;;;;;19.04;42.00;98822.00;2066008;86;21633;-82
2022/09/24 11:27:42;;;;;;;9.70;3.27;;;;;;;19.22;41.96;98818.09;2057203;83;21067;-83
2022/09/24 11:30:45;;;;;;;6.15;3.60;;;;;;;19.29;41.98;98821.02;2055482;87;20929;-83
2022/09/24 11:33:44;;;;;;;5.47;3.67;;;;;;;19.46;41.53;98823.25;2054613;86;21355;-82
2022/09/24 11:36:43;;;;;;;53.35;7.28;;;;;;;19.44;41.70;98825.07;2054464;86;20984;-83
2022/09/24 11:39:44;;;;;;;4.55;3.37;;;;;;;19.42;41.78;98817.63;2054700;86;20968;-83
2022/09/24 11:42:44;;;;;;;7.10;3.15;;;;;;;19.37;41.49;98817.73;2054707;86;20940;-83
2022/09/24 11:45:45;;;;;;;3.85;3.40;;;;;;;19.34;41.30;98815.16;2055146;86;20981;-83
2022/09/24 11:48:45;;;;;;;3.55;3.25;;;;;;;19.27;41.74;98815.34;2054599;86;21648;-82
2022/09/24 11:51:45;;;;;;;3.60;3.30;;;;;;;19.26;40.43;98820.22;2054308;86;20989;-82
2022/09/24 11:54:46;;;;;;;9.23;3.80;;;;;;;19.32;40.91;98816.10;2054327;86;20970;-83
2022/09/24 11:57:46;;;;;;;4.15;3.77;;;;;;;19.28;40.92;98810.47;2053860;86;20971;-82
2022/09/24 12:00:46;;;;;;;4.17;3.77;;;;;;;19.30;41.53;98810.84;2054038;86;21012;-82
2022/09/24 12:03:47;;;;;;;4.83;3.10;;;;;;;19.34;41.54;98805.02;2054005;86;20943;-82
2022/09/24 12:06:51;;;;;;;6.00;3.98;;;;;;;19.31;41.34;98805.97;2053947;86;20944;-82
2022/09/24 12:09:48;;;;;;;3.65;3.35;;;;;;;19.28;40.88;98802.52;2054308;86;20900;-82
2022/09/24 12:12:49;;;;;;;4.83;3.35;;;;;;;19.22;40.98;98804.86;2054508;86;20988;-82
2022/09/24 12:15:48;;;;;;;3.60;3.30;;;;;;;19.22;41.59;98800.02;2053949;87;20944;-82
2022/09/24 12:18:50;;;;;;;3.98;3.00;;;;;;;19.20;41.49;98797.41;2055975;86;20996;-82
2022/09/24 12:21:49;;;;;;;4.00;3.47;;;;;;;19.21;41.70;98791.67;2054353;86;21320;-82
2022/09/24 12:24:50;;;;;;;3.70;3.40;;;;;;;19.20;41.13;98795.22;2054760;87;21345;-82
2022/09/24 12:27:50;;;;;;;4.60;3.67;;;;;;;19.14;41.22;98794.05;2054165;85;20995;-83
2022/09/24 12:34:10;;;;;;;3.92;3.52;;;;;;;19.04;41.22;98792.90;2054324;87;20981;-82
2022/09/24 12:37:10;;;;;;;4.72;3.27;;;;;;;19.02;40.99;98788.09;2054705;87;20920;-83
2022/09/24 12:40:10;;;;;;;4.17;3.72;;;;;;;18.97;41.43;98786.47;2054394;87;20999;-82
2022/09/24 12:43:11;;;;;;;4.03;3.62;;;;;;;19.01;41.94;98781.06;2054598;87;20940;-82
2022/09/24 12:46:11;;;;;;;4.05;3.72;;;;;;;18.96;40.55;98784.27;2054197;87;21356;-84
2022/09/24 12:49:11;;;;;;;4.33;3.85;;;;;;;18.91;41.47;98779.54;2054483;87;20932;-81
2022/09/24 12:52:13;;;;;;;3.87;3.58;;;;;;;18.68;39.80;98777.86;2054611;87;20921;-83
2022/09/24 12:55:12;;;;;;;12.70;3.90;;;;;;;18.39;41.19;98787.24;2054737;87;20929;-84
2022/09/24 12:58:13;;;;;;;3.72;3.42;;;;;;;18.21;41.34;98790.25;2054479;87;21375;-83
2022/09/24 13:01:13;;;;;;;4.65;3.92;;;;;;;18.05;41.54;98786.13;2054832;87;21024;-83
2022/09/24 13:04:13;;;;;;;4.12;3.72;;;;;;;17.96;42.46;98787.63;2054836;87;20889;-82
2022/09/24 13:07:14;;;;;;;4.45;4.05;;;;;;;17.87;42.53;98787.80;2054997;87;20952;-84
2022/09/24 13:10:14;;;;;;;5.20;4.47;;;;;;;17.75;43.10;98780.97;2054688;87;21348;-83
2022/09/24 13:13:15;;;;;;;6.25;4.10;;;;;;;17.73;43.90;98784.96;2054913;87;20908;-83
2022/09/24 13:16:15;;;;;;;4.87;4.35;;;;;;;17.83;43.88;98781.70;2054917;87;20972;-84
2022/09/24 13:19:16;;;;;;;6.10;3.72;;;;;;;18.05;44.05;98778.21;2055072;87;20967;-84
2022/09/24 13:22:16;;;;;;;5.78;3.85;;;;;;;18.40;43.03;98779.73;2055242;87;20948;-84
2022/09/24 13:25:16;;;;;;;3.92;3.60;;;;;;;18.65;42.74;98772.19;2055034;87;20948;-83
2022/09/24 13:28:17;;;;;;;4.35;3.95;;;;;;;18.89;43.18;98773.41;2070939;86;21039;-83
2022/09/24 13:31:17;;;;;;;4.85;4.45;;;;;;;18.99;42.26;98770.97;2075921;86;21318;-83
2022/09/24 13:34:18;;;;;;;6.03;5.10;;;;;;;18.99;42.31;98764.36;2075786;86;21021;-83
2022/09/24 13:37:19;;;;;;;4.70;4.28;;;;;;;18.98;42.02;98770.55;2075874;86;20908;-82
2022/09/24 13:40:20;;;;;;;5.95;3.87;;;;;;;18.90;41.86;98763.25;2075909;86;20986;-83
2022/09/24 13:43:19;;;;;;;4.42;4.12;;;;;;;18.76;42.08;98762.24;2076375;86;21312;-83
2022/09/24 13:46:19;;;;;;;4.42;4.00;;;;;;;18.50;41.78;98761.91;2076067;86;20983;-83
2022/09/24 13:49:20;;;;;;;5.45;4.35;;;;;;;18.17;42.25;98766.08;2076073;86;20952;-82
2022/09/24 13:52:20;;;;;;;5.47;4.90;;;;;;;17.98;42.31;98763.38;2075812;86;20948;-83
2022/09/24 13:55:20;;;;;;;4.95;4.55;;;;;;;17.93;43.21;98754.68;2075804;86;20908;-82
2022/09/24 13:58:21;;;;;;;6.30;4.65;;;;;;;17.93;43.54;98757.32;2075489;86;20963;-83
2022/09/24 14:01:21;;;;;;;5.08;4.58;;;;;;;17.86;43.56;98751.28;2075994;86;20959;-81
2022/09/24 14:04:22;;;;;;;5.92;4.50;;;;;;;17.74;43.44;98750.19;2075735;86;20988;-83
2022/09/24 14:07:22;;;;;;;5.30;4.60;;;;;;;17.59;44.26;98744.70;2075754;86;20931;-83
2022/09/24 14:10:24;;;;;;;5.80;4.47;;;;;;;17.55;45.17;98744.34;2075751;86;20979;-82
2022/09/24 14:13:23;;;;;;;7.62;4.53;;;;;;;17.55;44.34;98741.70;2076418;86;20979;-83